Time;durP1;ratioP1;P1;durP2;ratioP2;P2;SDS_P1;SDS_P2;PMS_P1;PMS_P2;Temp;Humidity;BMP_temperature;BMP_pressure;BME280_temperature;BME280_humidity;BME280_pressure;Samples;Min_cycle;Max_cycle;Signal;HPM_P1;HPM_P2
2023/12/25 00:01:20;;;;;;;;;;;;;;;11.30;100.00;100506.31;5108515;28;20258;-45
2023/12/25 00:03:45;;;;;;;;;;;;;;;11.25;100.00;100490.72;5108835;28;20369;-44
2023/12/25 00:06:10;;;;;;;;;;;;;;;11.21;100.00;100501.03;5102565;28;19928;-45
2023/12/25 00:08:35;;;;;;;;;;;;;;;11.26;100.00;100499.63;5108475;28;19927;-45
2023/12/25 00:11:01;;;;;;;;;;;;;;;11.26;100.00;100505.00;5107290;28;19923;-45
2023/12/25 00:13:26;;;;;;;;;;;;;;;11.28;100.00;100521.81;5107760;28;19965;-44
2023/12/25 00:15:51;;;;;;;;;;;;;;;11.24;100.00;100507.06;5108382;28;20159;-46
2023/12/25 00:18:16;;;;;;;;;;;;;;;11.32;100.00;100498.84;5107427;28;20143;-45
2023/12/25 00:20:42;;;;;;;;;;;;;;;11.31;100.00;100506.09;5107780;28;19949;-45
2023/12/25 00:23:07;;;;;;;;;;;;;;;11.30;100.00;100506.31;5107226;28;19923;-45
2023/12/25 00:25:32;;;;;;;;;;;;;;;11.28;100.00;100516.44;5108010;28;20334;-44
2023/12/25 00:27:58;;;;;;;;;;;;;;;11.31;100.00;100534.91;5104749;28;19984;-44
2023/12/25 00:30:23;;;;;;;;;;;;;;;11.34;100.00;100523.72;5104959;28;19916;-45
2023/12/25 00:32:48;;;;;;;;;;;;;;;11.33;100.00;100530.16;5108501;28;20328;-45
2023/12/25 00:35:13;;;;;;;;;;;;;;;11.38;100.00;100538.50;5107898;28;20372;-44
2023/12/25 00:37:38;;;;;;;;;;;;;;;11.36;100.00;100540.53;5107339;28;20346;-44
2023/12/25 00:40:04;;;;;;;;;;;;;;;11.39;100.00;100534.75;5107573;28;20364;-46
2023/12/25 00:42:29;;;;;;;;;;;;;;;11.39;100.00;100527.50;5106557;28;20306;-45
2023/12/25 00:44:54;;;;;;;;;;;;;;;11.39;100.00;100524.81;5102550;28;19938;-45
2023/12/25 00:47:19;;;;;;;;;;;;;;;11.41;100.00;100541.63;5101470;28;19916;-45
2023/12/25 00:49:45;;;;;;;;;;;;;;;11.38;100.00;100525.03;5108209;28;20282;-50
2023/12/25 00:52:14;;;;;;;;;;;;;;;11.36;100.00;100511.72;5104315;28;21263;-49
2023/12/25 00:54:39;;;;;;;;;;;;;;;11.29;100.00;100516.22;5107767;28;19974;-46
2023/12/25 00:57:04;;;;;;;;;;;;;;;11.32;100.00;100509.63;5106417;28;19947;-45
2023/12/25 00:59:29;;;;;;;;;;;;;;;11.26;100.00;100526.56;5106050;28;19922;-45
2023/12/25 01:01:55;;;;;;;;;;;;;;;11.26;100.00;100521.19;5105065;28;19968;-45
2023/12/25 01:04:20;;;;;;;;;;;;;;;11.25;100.00;100514.97;5107639;28;19949;-46
2023/12/25 01:06:45;;;;;;;;;;;;;;;11.23;100.00;100516.19;5105116;28;19966;-46
2023/12/25 01:09:10;;;;;;;;;;;;;;;11.25;100.00;100498.78;5108437;28;20713;-45
2023/12/25 01:11:39;;;;;;;;;;;;;;;11.19;100.00;100504.97;5104766;28;20408;-45
2023/12/25 01:14:04;;;;;;;;;;;;;;;11.18;100.00;100512.19;5106599;28;19924;-48
2023/12/25 01:16:30;;;;;;;;;;;;;;;11.25;100.00;100511.44;5106677;28;19960;-45
2023/12/25 01:18:55;;;;;;;;;;;;;;;11.21;100.00;100509.09;5103293;28;20010;-45
2023/12/25 01:21:20;;;;;;;;;;;;;;;11.26;100.00;100508.53;5106241;28;19977;-44
2023/12/25 01:23:45;;;;;;;;;;;;;;;11.27;100.00;100515.59;5107280;28;19969;-42
2023/12/25 01:26:10;;;;;;;;;;;;;;;11.25;100.00;100519.53;5093410;28;19965;-44
2023/12/25 01:28:36;;;;;;;;;;;;;;;11.29;100.00;100521.63;5105586;28;20396;-43
2023/12/25 01:31:01;;;;;;;;;;;;;;;11.32;100.00;100531.16;5106001;28;19916;-44
2023/12/25 01:33:26;;;;;;;;;;;;;;;11.32;100.00;100523.09;5103716;28;19931;-46
2023/12/25 01:35:51;;;;;;;;;;;;;;;11.34;100.00;100539.91;5107041;28;19919;-44
2023/12/25 01:38:16;;;;;;;;;;;;;;;11.42;100.00;100531.66;5105955;28;19938;-44
2023/12/25 01:40:45;;;;;;;;;;;;;;;11.43;100.00;100512.63;5106051;28;19928;-43
2023/12/25 01:43:10;;;;;;;;;;;;;;;11.44;100.00;100518.84;5105934;28;19924;-43
2023/12/25 01:45:35;;;;;;;;;;;;;;;11.43;100.00;100517.19;5105778;28;20326;-44
2023/12/25 01:48:00;;;;;;;;;;;;;;;11.42;100.00;100507.41;5105895;28;19939;-44
2023/12/25 01:50:26;;;;;;;;;;;;;;;11.40;100.00;100502.25;5097129;28;20309;-46
2023/12/25 01:52:51;;;;;;;;;;;;;;;11.41;100.00;100516.53;5106432;28;19924;-44
2023/12/25 01:55:16;;;;;;;;;;;;;;;11.39;100.00;100514.03;5097755;28;19928;-45
2023/12/25 01:57:42;;;;;;;;;;;;;;;11.39;100.00;100524.81;5106182;28;20011;-45
2023/12/25 02:00:07;;;;;;;;;;;;;;;11.40;100.00;100504.06;5099106;28;20018;-44
2023/12/25 02:02:32;;;;;;;;;;;;;;;11.46;100.00;100516.78;5107709;28;20117;-45
2023/12/25 02:04:57;;;;;;;;;;;;;;;11.45;100.00;100533.97;5107807;28;19920;-44
2023/12/25 02:07:23;;;;;;;;;;;;;;;11.45;100.00;100539.34;5096697;28;19916;-44
2023/12/25 02:09:49;;;;;;;;;;;;;;;11.46;100.00;100549.13;5104577;28;19920;-44
2023/12/25 02:12:14;;;;;;;;;;;;;;;11.49;100.00;100553.28;5110119;28;19923;-43
2023/12/25 02:14:39;;;;;;;;;;;;;;;11.49;100.00;100558.69;5110173;28;20417;-44
2023/12/25 02:17:05;;;;;;;;;;;;;;;11.50;100.00;100553.09;5109731;28;20405;-44
2023/12/25 02:19:34;;;;;;;;;;;;;;;11.51;100.00;100537.78;5107830;28;20350;-44
2023/12/25 02:22:00;;;;;;;;;;;;;;;11.53;100.00;100541.94;5109100;28;19927;-43
2023/12/25 02:24:27;;;;;;;;;;;;;;;11.52;100.00;100542.94;5103214;28;19920;-44
2023/12/25 02:26:53;;;;;;;;;;;;;;;11.56;100.00;100554.19;5099063;28;20378;-45
2023/12/25 02:29:18;;;;;;;;;;;;;;;11.62;100.00;100548.84;5109525;28;19934;-44
2023/12/25 02:31:46;;;;;;;;;;;;;;;11.59;100.00;100538.44;5107431;28;19927;-44
2023/12/25 02:34:11;;;;;;;;;;;;;;;11.59;100.00;100551.94;5106425;28;20042;-43
2023/12/25 02:36:36;;;;;;;;;;;;;;;11.58;100.00;100538.63;5109762;28;20302;-43
2023/12/25 02:39:02;;;;;;;;;;;;;;;11.58;100.00;100547.53;5106796;28;20437;-46
2023/12/25 02:41:27;;;;;;;;;;;;;;;11.65;100.00;100548.44;5106966;28;19998;-45
2023/12/25 02:43:52;;;;;;;;;;;;;;;11.64;100.00;100544.09;5109783;28;20374;-43
2023/12/25 02:46:18;;;;;;;;;;;;;;;11.60;100.00;100528.50;5110696;28;20297;-44
2023/12/25 02:48:43;;;;;;;;;;;;;;;11.60;100.00;100550.88;5109836;28;20360;-44
2023/12/25 02:51:08;;;;;;;;;;;;;;;11.59;100.00;100543.00;5109488;28;20737;-45
2023/12/25 02:53:33;;;;;;;;;;;;;;;11.61;100.00;100557.97;5109761;28;20281;-45
2023/12/25 02:55:58;;;;;;;;;;;;;;;11.62;100.00;100558.78;5105765;28;20369;-44
2023/12/25 02:58:24;;;;;;;;;;;;;;;11.69;100.00;100569.59;5109823;28;20347;-44
2023/12/25 03:00:50;;;;;;;;;;;;;;;11.70;100.00;100576.69;5107497;28;20358;-47
2023/12/25 03:03:15;;;;;;;;;;;;;;;11.65;100.00;100572.69;5106273;28;20430;-44
2023/12/25 03:05:40;;;;;;;;;;;;;;;11.67;100.00;100569.00;5109291;28;19928;-47
2023/12/25 03:08:06;;;;;;;;;;;;;;;11.60;100.00;100572.44;5108623;28;19947;-45
2023/12/25 03:10:31;;;;;;;;;;;;;;;11.65;100.00;100575.41;5108313;28;19920;-45
2023/12/25 03:12:56;;;;;;;;;;;;;;;11.63;100.00;100555.88;5109034;28;19919;-45
2023/12/25 03:15:21;;;;;;;;;;;;;;;11.62;100.00;100570.41;5107495;28;19920;-45
2023/12/25 03:17:47;;;;;;;;;;;;;;;11.67;100.00;100577.06;5105750;28;19920;-46
2023/12/25 03:20:12;;;;;;;;;;;;;;;11.64;100.00;100587.22;5106714;28;19938;-44
2023/12/25 03:22:37;;;;;;;;;;;;;;;11.62;100.00;100565.00;5108442;28;19927;-44
2023/12/25 03:25:03;;;;;;;;;;;;;;;11.65;100.00;100588.03;5108627;28;19955;-44
2023/12/25 03:27:28;;;;;;;;;;;;;;;11.65;100.00;100578.09;5108714;28;19962;-44
2023/12/25 03:29:53;;;;;;;;;;;;;;;11.62;100.00;100565.00;5108952;28;20451;-44
2023/12/25 03:32:19;;;;;;;;;;;;;;;11.72;100.00;100561.97;5105066;28;20010;-44
2023/12/25 03:34:45;;;;;;;;;;;;;;;11.70;100.00;100576.69;5108976;28;19924;-45
2023/12/25 03:37:10;;;;;;;;;;;;;;;11.65;100.00;100570.00;5107112;28;20447;-45
2023/12/25 03:39:35;;;;;;;;;;;;;;;11.66;100.00;100570.81;5103060;28;20018;-44
2023/12/25 03:42:01;;;;;;;;;;;;;;;11.64;100.00;100573.75;5108515;27;19915;-44
2023/12/25 03:44:26;;;;;;;;;;;;;;;11.65;100.00;100577.25;5104571;28;19968;-44
2023/12/25 03:46:51;;;;;;;;;;;;;;;11.59;100.00;100554.63;5104883;28;20018;-45
2023/12/25 03:49:16;;;;;;;;;;;;;;;11.60;100.00;100566.22;5105611;28;20031;-44
2023/12/25 03:51:41;;;;;;;;;;;;;;;11.60;100.00;100561.66;5106165;28;20091;-44
2023/12/25 03:54:07;;;;;;;;;;;;;;;11.67;100.00;100556.34;5104956;28;19928;-45
2023/12/25 03:56:32;;;;;;;;;;;;;;;11.67;100.00;100560.91;5107842;28;19973;-44
2023/12/25 03:58:57;;;;;;;;;;;;;;;11.59;100.00;100549.22;5107289;28;19919;-44
2023/12/25 04:01:22;;;;;;;;;;;;;;;11.61;100.00;100574.13;5108197;28;19969;-44
2023/12/25 04:03:48;;;;;;;;;;;;;;;11.60;100.00;100567.06;5108482;28;19926;-44
2023/12/25 04:06:21;;;;;;;;;;;;;;;11.57;100.00;100566.63;5107890;27;19963;-43
2023/12/25 04:08:46;;;;;;;;;;;;;;;11.59;100.00;100565.41;5107788;28;20373;-43
2023/12/25 04:11:17;;;;;;;;;;;;;;;11.61;100.00;100571.44;5104884;28;20022;-46
2023/12/25 04:13:42;;;;;;;;;;;;;;;11.65;100.00;100580.78;5105852;28;20347;-48
2023/12/25 04:16:07;;;;;;;;;;;;;;;11.64;100.00;100562.97;5105630;28;19928;-45
2023/12/25 04:18:32;;;;;;;;;;;;;;;11.63;100.00;100574.75;5107995;28;19973;-45
2023/12/25 04:20:58;;;;;;;;;;;;;;;11.62;100.00;100583.88;5104132;28;19915;-44
2023/12/25 04:23:23;;;;;;;;;;;;;;;11.67;100.00;100579.78;5108112;28;20343;-44
2023/12/25 04:25:48;;;;;;;;;;;;;;;11.62;100.00;100586.56;5107987;28;19935;-45
2023/12/25 04:28:13;;;;;;;;;;;;;;;11.62;100.00;100573.09;5105016;28;20397;-44
2023/12/25 04:30:38;;;;;;;;;;;;;;;11.62;100.00;100570.41;5107395;28;20247;-45
2023/12/25 04:33:04;;;;;;;;;;;;;;;11.61;100.00;100589.44;5104286;28;20301;-44
2023/12/25 04:35:29;;;;;;;;;;;;;;;11.62;100.00;100581.19;5106764;28;19977;-44
2023/12/25 04:37:54;;;;;;;;;;;;;;;11.58;100.00;100577.19;5107702;28;19998;-45
2023/12/25 04:40:19;;;;;;;;;;;;;;;11.59;100.00;100565.41;5103657;28;20019;-44
2023/12/25 04:42:45;;;;;;;;;;;;;;;11.57;100.00;100577.41;5107427;28;20010;-44
2023/12/25 04:45:10;;;;;;;;;;;;;;;11.62;100.00;100558.78;5103864;28;19923;-44
2023/12/25 04:47:35;;;;;;;;;;;;;;;11.55;100.00;100566.81;5107277;28;20294;-43
2023/12/25 04:50:00;;;;;;;;;;;;;;;11.53;100.00;100535.69;5106652;28;19923;-43
2023/12/25 04:52:25;;;;;;;;;;;;;;;11.49;100.00;100548.72;5107170;28;19923;-45
2023/12/25 04:54:51;;;;;;;;;;;;;;;11.49;100.00;100548.72;5107871;28;19920;-44
2023/12/25 04:57:16;;;;;;;;;;;;;;;11.48;100.00;100541.69;5107273;28;19927;-45
2023/12/25 04:59:41;;;;;;;;;;;;;;;11.44;100.00;100543.09;5106725;28;19923;-45
2023/12/25 05:02:06;;;;;;;;;;;;;;;11.43;100.00;100528.78;5106694;28;20334;-44
2023/12/25 05:04:32;;;;;;;;;;;;;;;11.41;100.00;100535.41;5105118;28;20315;-45
2023/12/25 05:06:57;;;;;;;;;;;;;;;11.37;100.00;100542.19;5105613;28;20338;-45
2023/12/25 05:09:22;;;;;;;;;;;;;;;11.31;100.00;100543.81;5105737;28;19970;-45
2023/12/25 05:11:47;;;;;;;;;;;;;;;11.18;100.00;100541.81;5102689;28;19924;-45
2023/12/25 05:14:13;;;;;;;;;;;;;;;11.14;100.00;100532.47;5106986;28;19962;-45
2023/12/25 05:16:38;;;;;;;;;;;;;;;11.05;100.00;100541.69;5106829;28;19935;-45
2023/12/25 05:19:03;;;;;;;;;;;;;;;11.05;100.00;100549.78;5105429;28;19924;-45
2023/12/25 05:21:28;;;;;;;;;;;;;;;11.02;100.00;100555.56;5104817;28;19920;-45
2023/12/25 05:23:53;;;;;;;;;;;;;;;11.01;100.00;100556.59;5103967;28;19957;-44
2023/12/25 05:26:20;;;;;;;;;;;;;;;10.96;100.00;100537.50;5104879;28;19920;-45
2023/12/25 05:28:46;;;;;;;;;;;;;;;10.92;100.00;100546.97;5101809;28;19943;-43
2023/12/25 05:31:13;;;;;;;;;;;;;;;10.93;100.00;100527.94;5106433;28;19928;-45
2023/12/25 05:33:38;;;;;;;;;;;;;;;10.90;100.00;100536.41;5106091;28;19927;-45
2023/12/25 05:36:03;;;;;;;;;;;;;;;10.92;100.00;100545.09;5105706;28;19926;-45
2023/12/25 05:38:29;;;;;;;;;;;;;;;10.94;100.00;100550.31;5110965;28;19924;-45
2023/12/25 05:40:54;;;;;;;;;;;;;;;10.90;100.00;100549.00;5110636;27;19923;-46
2023/12/25 05:43:19;;;;;;;;;;;;;;;10.90;100.00;100555.25;5110554;27;19924;-45
2023/12/25 05:45:45;;;;;;;;;;;;;;;10.91;100.00;100556.06;5110409;27;20014;-45
2023/12/25 05:48:10;;;;;;;;;;;;;;;10.84;100.00;100550.59;5105373;28;20053;-44
2023/12/25 05:50:35;;;;;;;;;;;;;;;10.89;100.00;100552.72;5107449;27;19928;-44
2023/12/25 05:53:01;;;;;;;;;;;;;;;10.90;100.00;100560.63;5107781;27;19988;-44
2023/12/25 05:55:26;;;;;;;;;;;;;;;10.96;100.00;100550.94;5105605;27;19928;-44
2023/12/25 05:57:51;;;;;;;;;;;;;;;10.87;100.00;100550.22;5107257;28;20416;-44
2023/12/25 06:00:17;;;;;;;;;;;;;;;10.96;100.00;100559.03;5109128;27;20044;-46
2023/12/25 06:02:42;;;;;;;;;;;;;;;10.98;100.00;100556.97;5110351;27;20022;-44
2023/12/25 06:05:08;;;;;;;;;;;;;;;10.94;100.00;100561.06;5110681;27;20307;-45
2023/12/25 06:07:33;;;;;;;;;;;;;;;10.96;100.00;100561.72;5110724;27;19916;-45
2023/12/25 06:09:58;;;;;;;;;;;;;;;10.94;100.00;100555.69;5107088;27;19927;-45
2023/12/25 06:12:23;;;;;;;;;;;;;;;10.98;100.00;100556.97;5108225;27;19919;-45
2023/12/25 06:14:49;;;;;;;;;;;;;;;10.91;100.00;100556.06;5111200;27;19945;-46
2023/12/25 06:17:14;;;;;;;;;;;;;;;10.90;100.00;100566.00;5109703;27;19930;-44
2023/12/25 06:19:39;;;;;;;;;;;;;;;10.91;100.00;100570.38;5110503;28;19976;-45
2023/12/25 06:22:04;;;;;;;;;;;;;;;10.89;100.00;100568.88;5110934;27;20010;-45
2023/12/25 06:24:29;;;;;;;;;;;;;;;10.91;100.00;100578.44;5109541;28;19955;-43
2023/12/25 06:26:55;;;;;;;;;;;;;;;10.92;100.00;100576.56;5109554;28;19966;-45
2023/12/25 06:29:20;;;;;;;;;;;;;;;10.98;100.00;100573.13;5108803;27;19931;-45
2023/12/25 06:31:46;;;;;;;;;;;;;;;10.97;100.00;100582.22;5110437;28;19923;-45
2023/12/25 06:34:12;;;;;;;;;;;;;;;10.98;100.00;100581.22;5108594;27;19962;-44
2023/12/25 06:36:37;;;;;;;;;;;;;;;10.92;100.00;100590.88;5108739;28;19994;-45
2023/12/25 06:39:02;;;;;;;;;;;;;;;10.95;100.00;100590.50;5107421;28;19920;-47
2023/12/25 06:41:27;;;;;;;;;;;;;;;10.95;100.00;100584.25;5108628;28;19924;-44
2023/12/25 06:43:53;;;;;;;;;;;;;;;10.89;100.00;100590.41;5111337;27;19919;-46
2023/12/25 06:46:18;;;;;;;;;;;;;;;10.83;100.00;100589.34;5110860;27;19923;-45
2023/12/25 06:48:43;;;;;;;;;;;;;;;10.83;100.00;100583.13;5107311;28;20047;-44
2023/12/25 06:51:08;;;;;;;;;;;;;;;10.85;100.00;100591.81;5105073;28;20478;-46
2023/12/25 06:53:34;;;;;;;;;;;;;;;10.79;100.00;100579.13;5107422;28;19924;-44
2023/12/25 06:55:59;;;;;;;;;;;;;;;10.74;100.00;100583.22;5104932;28;19924;-45
2023/12/25 06:58:24;;;;;;;;;;;;;;;10.78;100.00;100586.38;5103996;27;19927;-44
2023/12/25 07:00:49;;;;;;;;;;;;;;;10.79;100.00;100585.34;5103924;28;19927;-45
2023/12/25 07:03:14;;;;;;;;;;;;;;;10.76;100.00;100570.41;5106814;28;19928;-45
2023/12/25 07:05:40;;;;;;;;;;;;;;;10.80;100.00;100575.44;5104423;28;20003;-45
2023/12/25 07:08:05;;;;;;;;;;;;;;;10.83;100.00;100583.13;5105112;28;19927;-45
2023/12/25 07:10:30;;;;;;;;;;;;;;;10.80;100.00;100588.88;5103688;28;19949;-45
2023/12/25 07:12:56;;;;;;;;;;;;;;;10.80;100.00;100591.59;5104763;28;20313;-44
2023/12/25 07:15:21;;;;;;;;;;;;;;;10.79;100.00;100595.28;5107204;28;19928;-45
2023/12/25 07:17:46;;;;;;;;;;;;;;;10.84;100.00;100603.63;5105391;28;19923;-44
2023/12/25 07:20:11;;;;;;;;;;;;;;;10.86;100.00;100601.56;5103820;28;19928;-45
2023/12/25 07:22:37;;;;;;;;;;;;;;;10.88;100.00;100607.63;5103564;28;19924;-45
2023/12/25 07:25:06;;;;;;;;;;;;;;;10.88;100.00;100597.66;5105520;28;20370;-46
2023/12/25 07:27:31;;;;;;;;;;;;;;;10.82;100.00;100594.88;5102425;28;19927;-46
2023/12/25 07:29:57;;;;;;;;;;;;;;;10.82;100.00;100600.28;5095428;28;20407;-46
2023/12/25 07:32:22;;;;;;;;;;;;;;;10.81;100.00;100593.22;5105497;28;19920;-45
2023/12/25 07:34:47;;;;;;;;;;;;;;;10.85;100.00;100616.03;5107269;28;20272;-45
2023/12/25 07:37:12;;;;;;;;;;;;;;;10.88;100.00;100621.06;5106239;28;20388;-45
2023/12/25 07:39:39;;;;;;;;;;;;;;;10.88;100.00;100619.22;5081389;28;20651;-45
2023/12/25 07:42:05;;;;;;;;;;;;;;;10.89;100.00;100628.13;5105942;28;19920;-45
2023/12/25 07:44:30;;;;;;;;;;;;;;;10.91;100.00;100626.06;5098336;28;20313;-45
2023/12/25 07:46:55;;;;;;;;;;;;;;;10.94;100.00;100631.06;5104876;28;20381;-43
2023/12/25 07:49:21;;;;;;;;;;;;;;;10.97;100.00;100628.81;5104151;28;20389;-47
2023/12/25 07:51:46;;;;;;;;;;;;;;;10.98;100.00;100619.75;5103976;28;19972;-46
2023/12/25 07:54:12;;;;;;;;;;;;;;;10.98;100.00;100621.59;5104375;27;19928;-44
2023/12/25 07:56:37;;;;;;;;;;;;;;;11.02;100.00;100622.06;5102023;28;19927;-45
2023/12/25 07:59:02;;;;;;;;;;;;;;;11.00;100.00;100624.94;5103920;28;20354;-45
2023/12/25 08:01:27;;;;;;;;;;;;;;;11.02;100.00;100643.59;5106983;28;20287;-45
2023/12/25 08:03:53;;;;;;;;;;;;;;;11.02;100.00;100644.44;5106721;28;20327;-46
2023/12/25 08:06:18;;;;;;;;;;;;;;;11.03;100.00;100640.69;5105330;28;19971;-43
2023/12/25 08:08:48;;;;;;;;;;;;;;;11.02;100.00;100646.28;5104280;28;20549;-45
2023/12/25 08:11:14;;;;;;;;;;;;;;;11.03;100.00;100635.31;5102332;28;19923;-44
2023/12/25 08:13:39;;;;;;;;;;;;;;;10.99;100.00;100631.34;5108575;28;19927;-45
2023/12/25 08:16:04;;;;;;;;;;;;;;;11.00;100.00;100630.31;5101991;28;19959;-44
2023/12/25 08:18:30;;;;;;;;;;;;;;;11.02;100.00;100625.56;5105041;28;19916;-44
2023/12/25 08:20:55;;;;;;;;;;;;;;;11.05;100.00;100637.81;5106628;28;19922;-46
2023/12/25 08:23:20;;;;;;;;;;;;;;;11.02;100.00;100638.22;5107448;28;19922;-46
2023/12/25 08:25:45;;;;;;;;;;;;;;;11.05;100.00;100644.03;5108450;28;19916;-44
2023/12/25 08:28:11;;;;;;;;;;;;;;;11.01;100.00;100642.78;5105720;28;19931;-44
2023/12/25 08:30:36;;;;;;;;;;;;;;;11.01;100.00;100637.38;5101888;28;19923;-45
2023/12/25 08:33:01;;;;;;;;;;;;;;;10.99;100.00;100640.25;5106752;28;19916;-47
2023/12/25 08:35:26;;;;;;;;;;;;;;;10.99;100.00;100640.25;5106819;28;19923;-44
2023/12/25 08:37:51;;;;;;;;;;;;;;;11.04;100.00;100647.78;5105932;28;19915;-45
2023/12/25 08:40:18;;;;;;;;;;;;;;;11.05;100.00;100659.38;5107917;28;20299;-45
2023/12/25 08:42:43;;;;;;;;;;;;;;;11.04;100.00;100647.78;5108492;28;19978;-45
2023/12/25 08:45:08;;;;;;;;;;;;;;;11.05;100.00;100657.50;5106917;28;19975;-45
2023/12/25 08:47:33;;;;;;;;;;;;;;;11.05;100.00;100633.28;5107760;28;19970;-47
2023/12/25 08:49:59;;;;;;;;;;;;;;;11.05;100.00;100627.06;5107079;28;19916;-45
2023/12/25 08:52:24;;;;;;;;;;;;;;;11.08;100.00;100632.06;5106395;28;19916;-44
2023/12/25 08:54:49;;;;;;;;;;;;;;;11.10;100.00;100646.16;5107466;28;19961;-44
2023/12/25 08:57:15;;;;;;;;;;;;;;;11.05;100.00;100643.22;5107339;28;19923;-45
2023/12/25 08:59:40;;;;;;;;;;;;;;;11.06;100.00;100640.34;5108298;28;20034;-45
2023/12/25 09:02:05;;;;;;;;;;;;;;;11.14;100.00;100645.59;5107638;28;19924;-45
2023/12/25 09:04:30;;;;;;;;;;;;;;;11.12;100.00;100652.22;5104189;28;19916;-45
2023/12/25 09:06:56;;;;;;;;;;;;;;;11.15;100.00;100668.81;5106686;28;19920;-45
2023/12/25 09:09:21;;;;;;;;;;;;;;;11.17;100.00;100666.78;5106630;28;19927;-45
2023/12/25 09:11:47;;;;;;;;;;;;;;;11.12;100.00;100654.91;5106299;28;19920;-45
2023/12/25 09:14:12;;;;;;;;;;;;;;;11.06;100.00;100648.41;5106727;28;19924;-46
2023/12/25 09:16:38;;;;;;;;;;;;;;;11.06;100.00;100645.72;5106416;28;19928;-44
2023/12/25 09:19:03;;;;;;;;;;;;;;;11.08;100.00;100665.19;5106648;28;19920;-47
2023/12/25 09:21:28;;;;;;;;;;;;;;;11.10;100.00;100647.00;5089049;28;20227;-44
2023/12/25 09:23:54;;;;;;;;;;;;;;;11.08;100.00;100654.44;5107340;28;19915;-44
2023/12/25 09:26:19;;;;;;;;;;;;;;;11.10;100.00;100657.78;5106778;28;19940;-44
2023/12/25 09:28:45;;;;;;;;;;;;;;;11.10;100.00;100656.94;5107269;28;19923;-44
2023/12/25 09:31:10;;;;;;;;;;;;;;;11.14;100.00;100653.69;5103550;28;20108;-45
2023/12/25 09:33:36;;;;;;;;;;;;;;;11.14;100.00;100659.06;5103561;28;19931;-46
2023/12/25 09:36:01;;;;;;;;;;;;;;;11.18;100.00;100657.66;5106869;28;19922;-43
2023/12/25 09:38:26;;;;;;;;;;;;;;;11.19;100.00;100655.81;5106626;28;20396;-44
2023/12/25 09:40:53;;;;;;;;;;;;;;;11.19;100.00;100656.66;5106668;28;20278;-46
2023/12/25 09:43:20;;;;;;;;;;;;;;;11.26;100.00;100650.50;5103922;28;19924;-45
2023/12/25 09:45:46;;;;;;;;;;;;;;;11.30;100.00;100651.78;5107242;28;19923;-47
2023/12/25 09:48:11;;;;;;;;;;;;;;;11.29;100.00;100663.56;5103004;28;19928;-45
2023/12/25 09:50:36;;;;;;;;;;;;;;;11.31;100.00;100662.34;5106489;28;19924;-45
2023/12/25 09:53:02;;;;;;;;;;;;;;;11.34;100.00;100663.84;5098268;28;19916;-47
2023/12/25 09:55:27;;;;;;;;;;;;;;;11.37;100.00;100663.44;5107927;28;19949;-45
2023/12/25 09:57:52;;;;;;;;;;;;;;;11.38;100.00;100665.97;5107343;28;20394;-44
2023/12/25 10:00:19;;;;;;;;;;;;;;;11.41;100.00;100670.13;5107328;28;20373;-45
2023/12/25 10:02:45;;;;;;;;;;;;;;;11.46;100.00;100678.47;5107038;28;20319;-45
2023/12/25 10:05:10;;;;;;;;;;;;;;;11.51;100.00;100688.69;5105702;28;20023;-45
2023/12/25 10:07:35;;;;;;;;;;;;;;;11.53;100.00;100674.00;5097525;28;20010;-46
2023/12/25 10:10:00;;;;;;;;;;;;;;;11.52;100.00;100664.22;5102779;28;19926;-45
2023/12/25 10:12:26;;;;;;;;;;;;;;;11.56;100.00;100675.47;5101862;28;19920;-45
2023/12/25 10:14:51;;;;;;;;;;;;;;;11.59;100.00;100665.13;5106011;28;19977;-44
2023/12/25 10:17:16;;;;;;;;;;;;;;;11.57;100.00;100664.47;5103719;28;20427;-47
2023/12/25 10:19:57;;;;;;;;;;;;;;;11.56;100.00;100662.00;5103829;28;20273;-46
2023/12/25 10:22:32;;;;;;;;;;;;;;;11.57;100.00;100675.25;5104432;28;20424;-44
2023/12/25 10:25:05;;;;;;;;;;;;;;;11.60;100.00;100674.88;5110383;28;19938;-45
2023/12/25 10:27:30;;;;;;;;;;;;;;;11.58;100.00;100698.47;5108023;28;19955;-47
2023/12/25 10:29:55;;;;;;;;;;;;;;;11.57;100.00;100694.13;5109340;28;20605;-46
2023/12/25 10:32:21;;;;;;;;;;;;;;;11.61;100.00;100687.34;5110502;28;19916;-45
2023/12/25 10:34:46;;;;;;;;;;;;;;;11.64;100.00;100705.81;5111005;28;19915;-45
2023/12/25 10:37:12;;;;;;;;;;;;;;;11.61;100.00;100705.34;5106377;28;19923;-44
2023/12/25 10:39:38;;;;;;;;;;;;;;;11.54;100.00;100705.31;5109454;28;20232;-47
2023/12/25 10:42:03;;;;;;;;;;;;;;;11.55;100.00;100701.56;5109763;28;19911;-45
2023/12/25 10:44:29;;;;;;;;;;;;;;;11.60;100.00;100704.53;5105180;28;19916;-46
2023/12/25 10:46:54;;;;;;;;;;;;;;;11.63;100.00;100696.06;5104427;28;19919;-45
2023/12/25 10:49:19;;;;;;;;;;;;;;;11.69;100.00;100699.00;5099146;28;19916;-46
2023/12/25 10:51:44;;;;;;;;;;;;;;;11.69;100.00;100696.31;5100498;28;19933;-45
2023/12/25 10:54:10;;;;;;;;;;;;;;;11.75;100.00;100703.66;5109106;28;19924;-45
2023/12/25 10:56:36;;;;;;;;;;;;;;;11.79;100.00;100694.13;5109691;28;19980;-44
2023/12/25 10:59:19;;;;;;;;;;;;;;;11.78;100.00;100679.00;5109234;28;20285;-45
2023/12/25 11:01:46;;;;;;;;;;;;;;;11.70;100.00;100679.13;5109422;28;20031;-46
2023/12/25 11:04:12;;;;;;;;;;;;;;;11.69;100.00;100672.03;5109887;28;20660;-44
2023/12/25 11:06:38;;;;;;;;;;;;;;;11.69;100.00;100688.22;5092216;28;19940;-44
2023/12/25 11:09:04;;;;;;;;;;;;;;;11.72;100.00;100688.69;5106157;28;19923;-46
2023/12/25 11:11:30;;;;;;;;;;;;;;;11.61;100.00;100673.88;5097598;28;19926;-45
2023/12/25 11:13:55;;;;;;;;;;;;;;;11.67;100.00;100683.03;5108656;28;19920;-43
2023/12/25 11:16:21;;;;;;;;;;;;;;;11.65;100.00;100691.31;5105694;28;19968;-45
2023/12/25 11:18:46;;;;;;;;;;;;;;;11.68;100.00;100691.97;5091366;28;20420;-47
2023/12/25 11:21:20;;;;;;;;;;;;;;;11.70;100.00;100698.00;5107362;28;19915;-46
2023/12/25 11:23:46;;;;;;;;;;;;;;;11.70;100.00;100712.31;5103406;28;19919;-44
2023/12/25 11:26:12;;;;;;;;;;;;;;;11.78;100.00;100705.94;5107279;28;19928;-45
2023/12/25 11:28:38;;;;;;;;;;;;;;;11.78;100.00;100687.06;5108155;28;19919;-44
2023/12/25 11:31:04;;;;;;;;;;;;;;;11.83;100.00;100696.25;5090990;28;19943;-45
2023/12/25 11:33:29;;;;;;;;;;;;;;;11.81;100.00;100694.78;5106597;28;20279;-46
2023/12/25 11:35:55;;;;;;;;;;;;;;;11.82;100.00;100702.69;5107938;28;20277;-44
2023/12/25 11:38:21;;;;;;;;;;;;;;;11.87;100.00;100688.63;5100763;28;19969;-46
2023/12/25 11:40:48;;;;;;;;;;;;;;;11.96;100.00;100684.78;5108967;28;19922;-48
2023/12/25 11:43:14;;;;;;;;;;;;;;;11.99;100.00;100691.66;5108741;28;19976;-45
2023/12/25 11:45:43;;;;;;;;;;;;;;;11.99;100.00;100688.94;5109378;27;19919;-45
2023/12/25 11:48:10;;;;;;;;;;;;;;;11.97;100.00;100691.81;5099835;28;20025;-44
2023/12/25 11:50:36;;;;;;;;;;;;;;;12.00;100.00;100707.63;5108573;28;19954;-46
2023/12/25 11:53:01;;;;;;;;;;;;;;;12.03;100.00;100691.06;5105311;28;20340;-46
2023/12/25 11:55:26;;;;;;;;;;;;;;;12.05;100.00;100688.16;5108532;28;19938;-47
2023/12/25 11:57:52;;;;;;;;;;;;;;;12.09;100.00;100694.84;5108767;28;20297;-45
2023/12/25 12:00:20;;;;;;;;;;;;;;;12.06;100.00;100697.94;5108478;28;19927;-45
2023/12/25 12:02:46;;;;;;;;;;;;;;;12.11;100.00;100698.16;5105847;28;20416;-44
2023/12/25 12:05:11;;;;;;;;;;;;;;;12.15;100.00;100693.22;5093716;28;19927;-45
2023/12/25 12:07:37;;;;;;;;;;;;;;;12.10;100.00;100690.28;5098863;28;19977;-45
2023/12/25 12:10:02;;;;;;;;;;;;;;;12.04;100.00;100676.53;5106883;28;19923;-48
2023/12/25 12:12:27;;;;;;;;;;;;;;;12.07;100.00;100668.06;5102405;28;19919;-46
2023/12/25 12:14:53;;;;;;;;;;;;;;;12.10;100.00;100655.22;5105807;28;20006;-46
2023/12/25 12:17:18;;;;;;;;;;;;;;;12.16;100.00;100649.84;5108483;28;20392;-45
2023/12/25 12:19:44;;;;;;;;;;;;;;;12.12;100.00;100639.66;5104543;28;20431;-45